• Join FlightAware (Why Join?)
  • Login
  • US Flag 
09:34AM EST


 

Airport Tracker/Info


-or-


 

Live Flight TrackerFlight Track Log ✈ DAL3970 ✈ 27-Apr-2013 ✈ KCWA - KDTW

Flight Track Log - Related Links

Times and Time Zones

All times are in EDT time to prevent confusion due to time zone crossing. See the DAL3970 flight status page for this flight to view local times or setup timezone preferences in your user account.

Time Position Orientation Groundspeed Altitude Reporting Facility
EDT Latitude Longitude Course Direction KTS MPH feet Rate Location/Type
07:36AM 44.7494 -89.6664 101° East 159 183 2,600  Level Minneapolis Center
07:37AM 44.6992 -89.6519 168° South 194 223 4,600 2,160 Climbing Minneapolis Center
07:38AM 44.6347 -89.6317 167° South 231 266 7,000 2,880 Climbing Minneapolis Center
07:39AM 44.6872 -89.1348 107° East  Level FlightAware Approximate
07:39AM 44.5711 -89.5728 147° Southeast 284 327 10,500  Level Minneapolis Center
07:40AM 44.6792 -89.0000 109° East  Level FlightAware Approximate
07:40AM 44.5350 -89.4606 114° Southeast 325 374 11,900  Level Minneapolis Center
07:41AM 44.6482 -88.8706 101° East  Level FlightAware Approximate
07:41AM 44.4939 -89.3278 113° Southeast 353 406 14,400  Level Minneapolis Center
07:42AM 44.4542 -89.2006 114° Southeast 367 422 16,100 1,620 Climbing Minneapolis Center
07:43AM 44.4097 -89.0564 113° Southeast 382 440 17,800 1,260 Climbing Minneapolis Center
07:44AM 44.3697 -88.9378 115° Southeast 386 444 19,000 1,320 Climbing Minneapolis Center
07:45AM 44.3086 -88.7447 114° Southeast 401 461 20,800 1,500 Climbing Minneapolis Center
07:46AM 44.2617 -88.5942 113° Southeast 416 479 22,100 1,200 Climbing Minneapolis Center
07:47AM 44.2050 -88.4189 114° Southeast 422 486 23,500 1,020 Climbing Minneapolis Center
07:48AM 44.1567 -88.2664 114° Southeast 427 491 24,400 840 Climbing Minneapolis Center
07:49AM 44.1056 -88.1106 115° Southeast 434 499 25,300 840 Climbing Minneapolis Center
07:50AM 44.0544 -87.9536 114° Southeast 441 507 26,200 840 Climbing Minneapolis Center
07:51AM 44.0028 -87.7953 114° Southeast 444 511 27,000 720 Climbing Minneapolis Center
07:52AM 43.9497 -87.6369 115° Southeast 448 516 27,700 600 Climbing Minneapolis Center
07:54AM 43.8775 -87.4228 115° Southeast 454 522 28,600 480 Climbing Minneapolis Center
07:55AM 43.8197 -87.2519 115° Southeast 456 525 29,000 180 Climbing Minneapolis Center
07:56AM 43.7644 -87.0886 115° Southeast 466 536 29,000  Level Minneapolis Center
07:57AM 43.7114 -86.9233 114° Southeast 471 542 29,000  Level Minneapolis Center
07:58AM 43.6669 -86.7528 110° East 472 543 29,000  Level Minneapolis Center
07:59AM 43.6214 -86.5833 110° East 472 543 29,000  Level Minneapolis Center
08:00AM 43.5761 -86.4128 110° East 472 543 29,000  Level Minneapolis Center
08:01AM 43.5297 -86.2406 110° East 475 547 29,000  Level Minneapolis Center
08:02AM 43.4833 -86.0694 110° East 476 548 29,000  Level Minneapolis Center
08:03AM 43.4358 -85.8986 111° Southeast 475 547 29,000 -180 Level Minneapolis Center
08:04AM 43.3697 -85.6594 111° Southeast 474 545 28,600 -780 Descending Minneapolis Center
08:05AM 43.3500 -85.5944 113° Southeast 476 548 27,700 -2,400 Descending Cleveland Center
08:05AM 43.3319 -85.5239 109° East 474 545 26,800 -2,220 Descending Chicago Center
08:06AM 43.2853 -85.3625 112° Southeast 461 531 24,600 -2,220 Descending Chicago Center
08:07AM 43.2556 -85.2586 111° Southeast 457 526 23,300 -1,080 Descending Cleveland Center
08:08AM 43.2222 -85.0994 106° East 438 504 23,000 -180 Descending Cleveland Center
08:09AM 43.1931 -84.9378 104° East 433 498 23,000  Level Cleveland Center
08:10AM 43.1486 -84.7836 112° Southeast 428 493 23,000  Level Cleveland Center
08:11AM 43.1042 -84.6300 112° Southeast 428 493 23,000  Level Cleveland Center
08:11AM 43.0925 -84.5781 107° East 438 504 23,000 -1,440 Level Chicago Center
08:12AM 43.0372 -84.3944 112° Southeast 436 502 20,800 -1,800 Descending Chicago Center
08:13AM 43.0236 -84.3578 117° Southeast 433 498 20,400 -1,800 Descending Cleveland Center
08:14AM 42.9747 -84.1986 113° Southeast 420 483 18,200 -2,040 Descending Cleveland Center
08:14AM 42.9614 -84.1581 114° Southeast 405 466 17,900 -1,620 Descending Cleveland Center
08:15AM 42.9350 -84.0631 111° Southeast 402 463 16,600 -1,980 Descending Cleveland Center
08:15AM 42.9064 -83.9764 114° Southeast 388 447 15,300 -1,620 Descending Cleveland Center
08:16AM 42.8875 -83.9100 111° Southeast 395 455 15,000 -2,040 Descending Cleveland Center
08:16AM 42.8667 -83.8325 110° East 383 441 13,300 -2,340 Descending Cleveland Center
08:17AM 42.8533 -83.7922 114° Southeast 383 441 12,700 -1,500 Descending Cleveland Center
08:17AM 42.8050 -83.7217 133° Southeast 360 414 11,800 -1,200 Descending Cleveland Center
08:18AM 42.7828 -83.7036 149° Southeast 348 400 11,500 -1,140 Descending Cleveland Center
08:18AM 42.7272 -83.6725 158° South 302 348 10,700 -1,200 Descending Cleveland Center
08:19AM 42.7047 -83.6603 158° South 318 366 10,300 -1,260 Descending Cleveland Center
08:19AM 42.6594 -83.6297 154° Southeast 287 330 9,600 -1,140 Descending Cleveland Center
08:20AM 42.6394 -83.6006 133° Southeast 299 344 9,200 -1,080 Descending Cleveland Center
08:20AM 42.5950 -83.5447 137° Southeast 283 326 8,300 -1,140 Descending Cleveland Center
08:21AM 42.5831 -83.5272 133° Southeast 287 330 8,100 -1,140 Descending Cleveland Center
08:21AM 42.5506 -83.4892 139° Southeast 280 322 7,500 -1,140 Descending Cleveland Center
08:22AM 42.5264 -83.4542 133° Southeast 281 323 7,000 -1,080 Descending Cleveland Center
08:22AM 42.4922 -83.4103 137° Southeast 268 308 6,300 -1,140 Descending Cleveland Center
08:23AM 42.4719 -83.3869 140° Southeast 276 318 5,900 -1,140 Descending Cleveland Center
08:23AM 42.4375 -83.3461 139° Southeast 256 295 5,200 -1,140 Descending Cleveland Center
08:24AM 42.4169 -83.3283 147° Southeast 270 311 4,800 -1,200 Descending Cleveland Center
08:24AM 42.3756 -83.3236 175° South 216 249 4,000 -1,200 Descending Cleveland Center
08:25AM 42.3211 -83.3242 180° South 173 199 2,900 -1,140 Descending Cleveland Center